createdAt,value
2018-08-19T00:00:52.801Z,20.90
2018-08-19T00:03:21.830Z,20.90
2018-08-19T00:05:50.841Z,20.90
2018-08-19T00:08:19.842Z,20.90
2018-08-19T00:11:02.121Z,20.70
2018-08-19T00:13:31.157Z,20.80
2018-08-19T00:16:00.172Z,20.80
2018-08-19T00:18:29.174Z,20.80
2018-08-19T00:20:58.374Z,20.70
2018-08-19T00:23:35.233Z,20.60
2018-08-19T00:26:04.536Z,20.70
2018-08-19T00:28:33.538Z,20.60
2018-08-19T00:31:04.735Z,20.50
2018-08-19T00:33:34.152Z,20.50
2018-08-19T00:36:18.335Z,20.60
2018-08-19T00:38:47.346Z,20.50
2018-08-19T00:41:16.326Z,20.40
2018-08-19T00:43:45.316Z,20.40
2018-08-19T00:46:29.081Z,20.40
2018-08-19T00:48:58.722Z,20.40
2018-08-19T00:51:27.798Z,20.40
2018-08-19T00:53:57.198Z,20.30
2018-08-19T00:56:26.201Z,20.30
2018-08-19T00:58:55.199Z,20.30
2018-08-19T01:01:37.498Z,20.40
2018-08-19T01:04:09.605Z,20.20
2018-08-19T01:06:43.755Z,20.20
2018-08-19T01:09:12.773Z,20.10
2018-08-19T01:11:43.598Z,20.00
2018-08-19T01:14:14.997Z,20.10
2018-08-19T01:16:44.013Z,20.00
2018-08-19T01:19:13.069Z,20.00
2018-08-19T01:21:42.082Z,20.00
2018-08-19T01:24:12.390Z,19.90
2018-08-19T01:26:42.386Z,20.00
2018-08-19T01:29:12.042Z,20.10
2018-08-19T01:31:41.078Z,20.10
2018-08-19T01:34:13.134Z,20.10
2018-08-19T01:36:42.270Z,20.00
2018-08-19T01:39:12.593Z,20.20
2018-08-19T01:41:42.255Z,20.10
2018-08-19T01:44:14.202Z,20.10
2018-08-19T01:46:46.906Z,20.00
2018-08-19T01:49:15.910Z,20.00
2018-08-19T01:51:45.246Z,20.00
2018-08-19T01:54:22.248Z,20.10
2018-08-19T01:56:55.144Z,20.10
2018-08-19T01:59:30.555Z,20.00
2018-08-19T02:02:02.833Z,20.00
2018-08-19T02:04:32.992Z,20.00
2018-08-19T02:07:02.038Z,20.00
2018-08-19T02:09:31.150Z,19.90
2018-08-19T02:12:00.865Z,20.00
2018-08-19T02:14:29.869Z,20.00
2018-08-19T02:16:58.902Z,20.00
2018-08-19T02:19:28.007Z,19.90
2018-08-19T02:21:56.998Z,19.90
2018-08-19T02:24:26.007Z,19.90
2018-08-19T02:26:54.998Z,20.00
2018-08-19T02:29:34.135Z,20.00
2018-08-19T02:32:04.489Z,19.90
2018-08-19T02:34:35.531Z,19.80
2018-08-19T02:37:07.003Z,19.70
2018-08-19T02:39:38.765Z,19.80
2018-08-19T02:42:24.942Z,19.70
2018-08-19T02:45:09.192Z,19.60
2018-08-19T02:47:38.174Z,20.00
2018-08-19T02:50:07.182Z,19.90
2018-08-19T02:52:38.062Z,19.70
2018-08-19T02:55:08.390Z,19.70
2018-08-19T02:57:40.376Z,19.60
2018-08-19T03:00:11.439Z,19.70
2018-08-19T03:02:41.654Z,19.60
2018-08-19T03:05:13.589Z,19.60
2018-08-19T03:07:43.390Z,19.60
2018-08-19T03:10:13.740Z,19.70
2018-08-19T03:12:43.111Z,19.60
2018-08-19T03:15:13.556Z,19.50
2018-08-19T03:17:42.980Z,19.60
2018-08-19T03:20:13.430Z,19.50
2018-08-19T03:22:42.646Z,19.80
2018-08-19T03:25:11.877Z,19.90
2018-08-19T03:27:40.912Z,19.80
2018-08-19T03:30:12.875Z,19.60
2018-08-19T03:32:49.086Z,19.50
2018-08-19T03:35:21.622Z,19.50
2018-08-19T03:37:53.542Z,19.60
2018-08-19T03:40:24.937Z,19.40
2018-08-19T03:42:54.185Z,19.50
2018-08-19T03:45:23.238Z,19.50
2018-08-19T03:47:53.131Z,19.40
2018-08-19T03:50:23.166Z,19.30
2018-08-19T03:52:52.851Z,19.40
2018-08-19T03:55:26.607Z,19.40
2018-08-19T03:58:04.860Z,19.40
2018-08-19T04:00:35.096Z,19.30
2018-08-19T04:03:16.959Z,19.40
2018-08-19T04:05:50.395Z,19.20
2018-08-19T04:08:19.409Z,18.90
2018-08-19T04:10:48.939Z,18.90
2018-08-19T04:13:36.902Z,18.90
2018-08-19T04:16:07.577Z,19.10
2018-08-19T04:18:40.768Z,19.20
2018-08-19T04:21:12.845Z,19.30
2018-08-19T04:23:45.392Z,19.30
2018-08-19T04:26:14.387Z,19.30
2018-08-19T04:28:44.502Z,19.30
2018-08-19T04:31:19.682Z,19.30
2018-08-19T04:33:49.365Z,19.20
2018-08-19T04:36:19.616Z,19.10
2018-08-19T04:38:48.618Z,19.10
2018-08-19T04:41:17.846Z,19.10
2018-08-19T04:43:47.573Z,19.00
2018-08-19T04:46:16.578Z,19.00
2018-08-19T04:48:46.035Z,19.00
2018-08-19T04:51:15.088Z,19.10
2018-08-19T04:53:44.075Z,19.10
2018-08-19T04:56:13.082Z,19.10
2018-08-19T04:58:42.090Z,19.00
2018-08-19T05:01:12.266Z,19.10
2018-08-19T05:03:43.702Z,19.30
2018-08-19T05:06:12.714Z,19.30
2018-08-19T05:08:41.763Z,19.20
2018-08-19T05:11:10.785Z,19.30
2018-08-19T05:13:39.771Z,19.40
2018-08-19T05:16:08.767Z,19.50
2018-08-19T05:18:37.759Z,19.40
2018-08-19T05:21:12.102Z,19.40
2018-08-19T05:23:41.093Z,19.50
2018-08-19T05:26:12.345Z,19.60
2018-08-19T05:28:41.604Z,19.70
2018-08-19T05:31:10.618Z,19.80
2018-08-19T05:33:42.211Z,19.90
2018-08-19T05:36:11.202Z,20.00
2018-08-19T05:38:40.206Z,20.10
2018-08-19T05:41:10.910Z,20.10
2018-08-19T05:43:39.898Z,20.20
2018-08-19T05:46:08.910Z,20.40
2018-08-19T05:48:37.897Z,20.60
2018-08-19T05:51:06.875Z,20.60
2018-08-19T05:53:38.491Z,20.60
2018-08-19T05:56:07.491Z,20.50
2018-08-19T05:58:36.650Z,20.80
2018-08-19T06:01:05.888Z,20.90
2018-08-19T06:03:34.986Z,21.00
2018-08-19T06:06:04.098Z,21.00
2018-08-19T06:08:33.242Z,21.10
2018-08-19T06:11:02.456Z,21.10
2018-08-19T06:13:31.632Z,21.10
2018-08-19T06:16:00.811Z,21.30
2018-08-19T06:18:29.886Z,21.30
2018-08-19T06:20:59.058Z,21.30
2018-08-19T06:23:28.267Z,21.30
2018-08-19T06:25:57.459Z,21.40
2018-08-19T06:28:27.319Z,21.30
2018-08-19T06:30:56.549Z,21.40
2018-08-19T06:33:25.666Z,21.50
2018-08-19T06:35:54.877Z,21.70
2018-08-19T06:38:24.065Z,21.70
2018-08-19T06:40:53.215Z,21.70
2018-08-19T06:43:22.278Z,21.70
2018-08-19T06:45:51.462Z,21.70
2018-08-19T06:48:20.574Z,21.90
2018-08-19T06:50:49.645Z,21.90
2018-08-19T06:53:24.505Z,22.00
2018-08-19T06:55:53.631Z,21.90
2018-08-19T06:58:23.576Z,22.00
2018-08-19T07:00:52.712Z,22.10
2018-08-19T07:03:21.980Z,22.10
2018-08-19T07:06:07.174Z,22.30
2018-08-19T07:08:36.315Z,22.50
2018-08-19T07:11:05.450Z,22.50
2018-08-19T07:13:34.635Z,22.40
2018-08-19T07:16:03.802Z,22.30
2018-08-19T07:18:32.861Z,22.50
2018-08-19T07:21:02.033Z,22.60
2018-08-19T07:23:31.293Z,22.50
2018-08-19T07:26:00.351Z,22.70
2018-08-19T07:28:29.551Z,22.70
2018-08-19T07:30:58.745Z,22.90
2018-08-19T07:33:27.934Z,23.00
2018-08-19T07:35:57.068Z,23.20
2018-08-19T07:38:27.310Z,23.20
2018-08-19T07:40:56.431Z,23.30
2018-08-19T07:43:25.762Z,23.40
2018-08-19T07:45:54.958Z,23.40
2018-08-19T07:48:23.983Z,23.40
2018-08-19T07:50:53.155Z,23.40
2018-08-19T07:53:22.307Z,23.80
2018-08-19T07:55:51.497Z,23.90
2018-08-19T07:58:35.074Z,23.90
2018-08-19T08:01:04.218Z,23.90
2018-08-19T08:03:33.574Z,24.00
2018-08-19T08:06:03.418Z,23.90
2018-08-19T08:08:33.609Z,24.00
2018-08-19T08:11:03.534Z,23.90
2018-08-19T08:13:33.554Z,23.80
2018-08-19T08:16:03.908Z,24.00
2018-08-19T08:18:33.710Z,24.20
2018-08-19T08:21:08.988Z,24.10
2018-08-19T08:23:38.142Z,24.10
2018-08-19T08:26:07.174Z,24.20
2018-08-19T08:28:36.227Z,24.30
2018-08-19T08:31:09.254Z,24.50
2018-08-19T08:33:40.235Z,24.50
2018-08-19T08:36:10.620Z,24.70
2018-08-19T08:38:41.914Z,24.80
2018-08-19T08:41:10.948Z,25.00
2018-08-19T08:43:40.049Z,24.90
2018-08-19T08:46:09.203Z,25.10
2018-08-19T08:48:38.435Z,25.20
2018-08-19T08:51:07.445Z,25.20
2018-08-19T08:53:44.399Z,25.40
2018-08-19T08:56:14.155Z,25.60
2018-08-19T08:58:43.150Z,25.60
2018-08-19T09:01:12.267Z,25.40
2018-08-19T09:03:41.482Z,25.30
2018-08-19T09:06:18.387Z,25.50
2018-08-19T09:08:47.546Z,25.60
2018-08-19T09:11:18.474Z,25.80
2018-08-19T09:13:47.814Z,25.80
2018-08-19T09:16:16.974Z,25.70
2018-08-19T09:18:46.186Z,26.00
2018-08-19T09:21:15.638Z,26.20
2018-08-19T09:23:44.769Z,26.50
2018-08-19T09:26:14.042Z,26.40
2018-08-19T09:28:43.135Z,26.40
2018-08-19T09:31:12.258Z,26.50
2018-08-19T09:33:41.381Z,26.70
2018-08-19T09:36:10.568Z,26.80
2018-08-19T09:38:39.777Z,26.70
2018-08-19T09:41:09.746Z,27.00
2018-08-19T09:43:38.878Z,27.10
2018-08-19T09:46:07.979Z,27.40
2018-08-19T09:48:37.371Z,27.40
2018-08-19T09:51:12.564Z,27.50
2018-08-19T09:53:41.709Z,27.50
2018-08-19T09:56:11.629Z,27.50
2018-08-19T09:58:42.747Z,27.70
2018-08-19T10:01:15.354Z,27.70
2018-08-19T10:03:44.556Z,27.70
2018-08-19T10:06:13.694Z,27.50
2018-08-19T10:08:42.875Z,27.40
2018-08-19T10:11:12.033Z,27.40
2018-08-19T10:13:41.261Z,27.70
2018-08-19T10:16:10.359Z,27.90
2018-08-19T10:18:39.478Z,28.10
2018-08-19T10:21:13.754Z,28.00
2018-08-19T10:23:43.218Z,28.10
2018-08-19T10:26:12.298Z,28.30
2018-08-19T10:28:41.599Z,28.20
2018-08-19T10:31:17.351Z,28.20
2018-08-19T10:33:50.547Z,28.30
2018-08-19T10:36:19.705Z,28.50
2018-08-19T10:38:48.901Z,28.60
2018-08-19T10:41:17.920Z,28.70
2018-08-19T10:43:47.110Z,28.70
2018-08-19T10:46:16.289Z,29.00
2018-08-19T10:48:45.338Z,29.00
2018-08-19T10:51:14.450Z,29.00
2018-08-19T10:53:44.647Z,29.20
2018-08-19T10:56:13.757Z,29.30
2018-08-19T10:58:47.131Z,29.50
2018-08-19T11:01:16.171Z,29.60
2018-08-19T11:03:45.390Z,29.50
2018-08-19T11:06:14.546Z,29.70
2018-08-19T11:08:47.857Z,30.00
2018-08-19T11:11:17.120Z,30.60
2018-08-19T11:13:46.231Z,30.60
2018-08-19T11:16:15.411Z,31.60
2018-08-19T11:18:47.542Z,31.80
2018-08-19T11:21:26.726Z,32.10
2018-08-19T11:23:56.465Z,32.00
2018-08-19T11:26:25.565Z,32.30
2018-08-19T11:28:57.730Z,32.30
2018-08-19T11:31:30.481Z,33.10
2018-08-19T11:34:02.994Z,33.10
2018-08-19T11:36:38.265Z,33.00
2018-08-19T11:39:10.917Z,32.90
2018-08-19T11:41:39.955Z,33.10
2018-08-19T11:44:13.519Z,33.00
2018-08-19T11:46:42.846Z,33.50
2018-08-19T11:49:13.358Z,33.60
2018-08-19T11:51:53.730Z,34.00
2018-08-19T11:54:23.711Z,34.20
2018-08-19T11:57:00.639Z,34.60
2018-08-19T11:59:38.894Z,34.00
2018-08-19T12:02:15.327Z,33.90
2018-08-19T12:04:44.895Z,34.00
2018-08-19T12:07:14.006Z,34.00
2018-08-19T12:09:45.528Z,33.20
2018-08-19T12:12:14.582Z,33.50
2018-08-19T12:14:43.771Z,33.10
2018-08-19T12:17:13.177Z,33.60
2018-08-19T12:19:43.831Z,34.40
2018-08-19T12:22:13.091Z,34.60
2018-08-19T12:24:47.310Z,34.80
2018-08-19T12:27:22.348Z,33.80
2018-08-19T12:29:56.126Z,33.20
2018-08-19T12:32:27.038Z,32.40
2018-08-19T12:34:58.480Z,30.90
2018-08-19T12:37:28.936Z,30.70
2018-08-19T12:39:58.591Z,32.00
2018-08-19T12:42:28.409Z,33.20
2018-08-19T12:45:02.218Z,34.70
2018-08-19T12:47:31.338Z,35.30
2018-08-19T12:50:02.892Z,35.60
2018-08-19T12:52:33.398Z,36.10
2018-08-19T12:55:04.274Z,36.20
2018-08-19T12:57:33.640Z,35.90
2018-08-19T13:00:11.014Z,35.40
2018-08-19T13:02:43.965Z,35.60
2018-08-19T13:05:14.167Z,35.20
2018-08-19T13:07:43.219Z,35.10
2018-08-19T13:10:12.357Z,34.70
2018-08-19T13:12:57.950Z,34.80
2018-08-19T13:15:30.086Z,34.70
2018-08-19T13:17:59.228Z,34.90
2018-08-19T13:20:28.368Z,34.70
2018-08-19T13:23:01.114Z,33.70
2018-08-19T13:25:30.615Z,32.60
2018-08-19T13:27:59.779Z,32.30
2018-08-19T13:30:28.915Z,32.80
2018-08-19T13:32:57.954Z,33.20
2018-08-19T13:35:27.310Z,33.00
2018-08-19T13:37:56.429Z,32.90
2018-08-19T13:40:25.561Z,32.70
2018-08-19T13:42:54.751Z,32.40
2018-08-19T13:45:26.549Z,31.70
2018-08-19T13:47:55.550Z,31.60
2018-08-19T13:50:24.663Z,31.10
2018-08-19T13:52:53.782Z,30.70
2018-08-19T13:55:22.902Z,30.50
2018-08-19T13:57:52.078Z,30.50
2018-08-19T14:00:23.074Z,30.60
2018-08-19T14:02:52.405Z,30.70
2018-08-19T14:05:21.544Z,30.60
2018-08-19T14:07:50.662Z,30.70
2018-08-19T14:10:19.934Z,30.50
2018-08-19T14:12:49.146Z,30.30
2018-08-19T14:15:18.275Z,30.60
2018-08-19T14:17:47.373Z,30.50
2018-08-19T14:20:16.507Z,30.40
2018-08-19T14:22:45.586Z,30.40
2018-08-19T14:25:14.781Z,30.40
2018-08-19T14:27:43.874Z,30.40
2018-08-19T14:30:13.281Z,30.40
2018-08-19T14:32:43.840Z,30.50
2018-08-19T14:35:13.154Z,30.70
2018-08-19T14:37:42.462Z,30.60
2018-08-19T14:40:14.966Z,30.40
2018-08-19T14:42:44.021Z,30.30
2018-08-19T14:45:13.239Z,30.70
2018-08-19T14:47:42.362Z,30.50
2018-08-19T14:50:15.460Z,30.40
2018-08-19T14:52:44.502Z,30.20
2018-08-19T14:55:13.574Z,30.10
2018-08-19T14:57:43.750Z,30.20
2018-08-19T15:00:15.107Z,30.00
2018-08-19T15:02:44.255Z,29.90
2018-08-19T15:05:15.859Z,29.80
2018-08-19T15:07:45.357Z,29.60
2018-08-19T15:10:22.053Z,29.70
2018-08-19T15:12:51.267Z,29.80
2018-08-19T15:15:20.459Z,29.80
2018-08-19T15:17:54.522Z,30.00
2018-08-19T15:20:31.742Z,29.90
2018-08-19T15:23:18.923Z,30.10
2018-08-19T15:25:48.058Z,30.30
2018-08-19T15:28:17.962Z,30.30
2018-08-19T15:30:47.126Z,30.30
2018-08-19T15:33:16.670Z,30.50
2018-08-19T15:35:45.831Z,30.60
2018-08-19T15:38:14.938Z,30.90
2018-08-19T15:40:46.500Z,31.10
2018-08-19T15:43:15.699Z,30.80
2018-08-19T15:45:45.255Z,30.80
2018-08-19T15:48:14.390Z,30.70
2018-08-19T15:50:43.549Z,30.60
2018-08-19T15:53:12.693Z,30.60
2018-08-19T15:55:41.894Z,30.50
2018-08-19T15:58:11.058Z,30.30
2018-08-19T16:00:41.485Z,30.30
2018-08-19T16:03:12.223Z,30.30
2018-08-19T16:05:41.410Z,30.40
2018-08-19T16:08:10.533Z,30.40
2018-08-19T16:10:39.869Z,30.50
2018-08-19T16:13:11.623Z,30.30
2018-08-19T16:15:40.754Z,30.10
2018-08-19T16:18:11.029Z,29.90
2018-08-19T16:20:40.394Z,29.80
2018-08-19T16:23:10.161Z,29.70
2018-08-19T16:25:40.210Z,29.60
2018-08-19T16:28:10.152Z,29.70
2018-08-19T16:30:40.110Z,29.60
2018-08-19T16:33:10.132Z,29.70
2018-08-19T16:35:40.179Z,29.60
2018-08-19T16:38:10.254Z,29.70
2018-08-19T16:40:40.187Z,29.80
2018-08-19T16:43:10.291Z,30.00
2018-08-19T16:45:40.297Z,30.00
2018-08-19T16:48:10.594Z,30.00
2018-08-19T16:50:40.373Z,30.10
2018-08-19T16:53:10.386Z,30.10
2018-08-19T16:55:40.382Z,30.10
2018-08-19T16:58:10.346Z,30.10
2018-08-19T17:00:40.542Z,30.00
2018-08-19T17:03:34.410Z,29.70
2018-08-19T17:06:04.027Z,29.60
2018-08-19T17:08:33.186Z,29.60
2018-08-19T17:11:02.310Z,29.40
2018-08-19T17:13:31.416Z,29.00
2018-08-19T17:16:00.556Z,28.60
2018-08-19T17:18:29.682Z,28.40
2018-08-19T17:20:58.782Z,28.30
2018-08-19T17:23:27.874Z,28.00
2018-08-19T17:26:00.988Z,28.10
2018-08-19T17:28:30.105Z,27.80
2018-08-19T17:30:59.194Z,27.60
2018-08-19T17:33:30.566Z,27.50
2018-08-19T17:35:59.734Z,27.60
2018-08-19T17:38:32.009Z,27.40
2018-08-19T17:41:01.438Z,27.20
2018-08-19T17:43:39.593Z,27.10
2018-08-19T17:46:13.550Z,26.90
2018-08-19T17:48:43.482Z,26.80
2018-08-19T17:51:28.211Z,26.80
2018-08-19T17:53:57.296Z,26.60
2018-08-19T17:56:27.286Z,26.50
2018-08-19T17:58:56.527Z,26.40
2018-08-19T18:01:25.636Z,26.30
2018-08-19T18:03:54.853Z,26.20
2018-08-19T18:06:24.013Z,26.20
2018-08-19T18:08:53.877Z,26.10
2018-08-19T18:11:23.183Z,26.00
2018-08-19T18:13:52.215Z,25.90
2018-08-19T18:16:21.374Z,25.80
2018-08-19T18:18:50.494Z,25.70
2018-08-19T18:21:19.498Z,25.70
2018-08-19T18:23:49.508Z,25.60
2018-08-19T18:26:19.406Z,25.50
2018-08-19T18:28:49.136Z,25.40
2018-08-19T18:31:22.106Z,25.30
2018-08-19T18:33:56.560Z,25.20
2018-08-19T18:36:26.872Z,25.00
2018-08-19T18:38:56.251Z,25.00
2018-08-19T18:41:30.551Z,24.80
2018-08-19T18:44:01.038Z,24.70
2018-08-19T18:46:30.642Z,24.70
2018-08-19T18:49:07.925Z,24.60
2018-08-19T18:51:36.977Z,24.70
2018-08-19T18:54:06.159Z,24.60
2018-08-19T18:56:35.350Z,24.60
2018-08-19T18:59:04.506Z,24.50
2018-08-19T19:01:33.631Z,24.60
2018-08-19T19:04:02.818Z,24.50
2018-08-19T19:06:31.959Z,24.50
2018-08-19T19:09:01.094Z,24.50
2018-08-19T19:11:30.196Z,24.40
2018-08-19T19:14:02.756Z,24.30
2018-08-19T19:16:38.246Z,24.20
2018-08-19T19:19:07.565Z,24.10
2018-08-19T19:21:36.670Z,24.10
2018-08-19T19:24:05.807Z,24.10
2018-08-19T19:26:40.198Z,24.10
2018-08-19T19:29:14.986Z,24.00
2018-08-19T19:31:44.063Z,24.00
2018-08-19T19:34:14.397Z,23.90
2018-08-19T19:36:43.744Z,23.90
2018-08-19T19:39:12.778Z,23.90
2018-08-19T19:41:42.398Z,23.80
2018-08-19T19:44:25.647Z,23.60
2018-08-19T19:46:54.978Z,23.50
2018-08-19T19:49:24.414Z,23.40
2018-08-19T19:51:58.802Z,23.40
2018-08-19T19:54:29.338Z,23.50
2018-08-19T19:56:58.941Z,23.50
2018-08-19T19:59:32.558Z,23.50
2018-08-19T20:02:01.927Z,23.40
2018-08-19T20:04:34.381Z,23.40
2018-08-19T20:07:03.530Z,23.30
2018-08-19T20:09:35.662Z,23.10
2018-08-19T20:12:04.667Z,23.10
2018-08-19T20:14:38.195Z,23.10
2018-08-19T20:17:07.342Z,23.20
2018-08-19T20:19:36.486Z,23.30
2018-08-19T20:22:05.559Z,23.20
2018-08-19T20:24:34.741Z,23.10
2018-08-19T20:27:03.854Z,23.20
2018-08-19T20:29:33.046Z,23.10
2018-08-19T20:32:02.244Z,23.10
2018-08-19T20:34:31.455Z,23.00
2018-08-19T20:37:00.649Z,23.00
2018-08-19T20:39:29.848Z,23.00
2018-08-19T20:41:58.906Z,23.00
2018-08-19T20:44:28.112Z,23.00
2018-08-19T20:46:58.138Z,23.10
2018-08-19T20:49:28.186Z,23.10
2018-08-19T20:51:57.387Z,23.20
2018-08-19T20:54:27.470Z,23.30
2018-08-19T20:56:56.625Z,23.30
2018-08-19T20:59:31.070Z,23.30
2018-08-19T21:02:00.246Z,23.40
2018-08-19T21:04:29.430Z,23.40
2018-08-19T21:06:58.813Z,23.50
2018-08-19T21:09:28.042Z,23.40
2018-08-19T21:11:57.114Z,23.50
2018-08-19T21:14:27.421Z,23.50
2018-08-19T21:16:56.595Z,23.50
2018-08-19T21:19:25.746Z,23.40
2018-08-19T21:21:55.163Z,23.50
2018-08-19T21:24:24.362Z,23.50
2018-08-19T21:27:00.051Z,23.50
2018-08-19T21:29:30.019Z,23.50
2018-08-19T21:31:59.170Z,23.50
2018-08-19T21:34:28.737Z,23.50
2018-08-19T21:36:58.857Z,23.50
2018-08-19T21:39:28.059Z,23.50
2018-08-19T21:41:57.210Z,23.50
2018-08-19T21:44:27.463Z,23.40
2018-08-19T21:46:56.718Z,23.30
2018-08-19T21:49:25.903Z,23.10
2018-08-19T21:51:55.078Z,23.00
2018-08-19T21:54:24.149Z,23.00
2018-08-19T21:56:53.323Z,22.90
2018-08-19T21:59:25.052Z,22.80
2018-08-19T22:02:00.191Z,22.70
2018-08-19T22:04:30.003Z,22.70
2018-08-19T22:06:59.159Z,22.80
2018-08-19T22:09:35.854Z,22.80
2018-08-19T22:12:06.294Z,22.70
2018-08-19T22:14:35.426Z,22.70
2018-08-19T22:17:09.836Z,22.70
2018-08-19T22:19:39.272Z,22.60
2018-08-19T22:22:08.745Z,22.50
2018-08-19T22:24:38.051Z,22.50
2018-08-19T22:27:12.548Z,22.60
2018-08-19T22:29:41.714Z,22.50
2018-08-19T22:32:10.902Z,22.40
2018-08-19T22:34:40.053Z,22.30
2018-08-19T22:37:09.218Z,22.10
2018-08-19T22:39:38.378Z,22.00
2018-08-19T22:42:07.518Z,22.00
2018-08-19T22:44:36.563Z,21.90
2018-08-19T22:47:05.754Z,21.70
2018-08-19T22:49:34.850Z,21.60
2018-08-19T22:52:24.551Z,21.70
2018-08-19T22:54:57.557Z,21.80
2018-08-19T22:57:28.171Z,21.80
2018-08-19T22:59:57.298Z,21.90
2018-08-19T23:02:27.334Z,22.00
2018-08-19T23:04:56.502Z,22.10
2018-08-19T23:07:32.354Z,22.00
2018-08-19T23:10:01.542Z,22.10
2018-08-19T23:12:30.702Z,21.90
2018-08-19T23:15:16.924Z,21.90
2018-08-19T23:17:45.958Z,22.00
2018-08-19T23:20:15.302Z,21.90
2018-08-19T23:22:45.367Z,21.80
2018-08-19T23:25:15.273Z,21.80
2018-08-19T23:27:45.429Z,21.90
2018-08-19T23:30:15.360Z,22.00
2018-08-19T23:32:45.538Z,21.90
2018-08-19T23:35:15.609Z,22.10
2018-08-19T23:37:45.477Z,22.40
2018-08-19T23:40:15.554Z,22.30
2018-08-19T23:42:45.576Z,22.00
2018-08-19T23:45:15.632Z,21.90
2018-08-19T23:47:45.594Z,21.90
2018-08-19T23:50:15.693Z,22.20
2018-08-19T23:52:45.722Z,22.30
2018-08-19T23:55:15.828Z,22.30
2018-08-19T23:57:45.905Z,22.10
